UAE35Q EDDM-OMDB
Flight info
| Callsign | UAE35Q |
|---|---|
| Flight time | N/A |
| Altitude | 35000 |
| Route | VAVOR M867 PITAR/N0476F350 M867 RADIZ DCT PESUT DCT PALEZ DCT NERRA DCT KOFER DCT PINDO/N0471F370 DCT KEA UN132 KUPIS DCT LAPSO DCT GUDIS DCT KAVOS DCT EVORA DCT LAKTO L560 SERMA L550 KARIK B411 DEESA Y415 NIMAR G662 MODIV/N0478F390 G662 KSA M321 RESAL T533 RAPMA DCT KUVSO DCT RIBOT M550 GOLGU Q725 UKRAG G783 ASPED Q308 KIPOK Q568 IMPED |
| Aircraft | B77W/H-SDE2E3FGHIJ3J5M1P2RWXYZ/LB1D1 |
Departure
| Time | N/A |
|---|---|
| Airport | Munich Airport (EDDM) |
Arrival
| Time | 2026-04-23 16:06 |
|---|---|
| Airport | Dubai International Airport (OMDB) |
| Time | Latitude | Longitude | Altitude | Speed | Heading |
|---|---|---|---|---|---|
| 2026-04-23 11:37 | 40.61151 | 20.75601 | 35019 ft | 511 kts | 130° |
| 2026-04-23 11:38 | 40.56522 | 20.82708 | 35029 ft | 512 kts | 130° |
| 2026-04-23 11:38 | 40.51877 | 20.89826 | 35029 ft | 513 kts | 130° |
| 2026-04-23 11:39 | 40.47185 | 20.96811 | 35032 ft | 513 kts | 135° |
| 2026-04-23 11:39 | 40.41950 | 21.03186 | 35032 ft | 514 kts | 139° |
| 2026-04-23 11:40 | 40.36642 | 21.09491 | 35035 ft | 515 kts | 139° |
| 2026-04-23 11:40 | 40.31339 | 21.15828 | 35043 ft | 517 kts | 139° |
| 2026-04-23 11:41 | 40.26068 | 21.22158 | 35038 ft | 518 kts | 139° |
| 2026-04-23 11:41 | 40.20759 | 21.28533 | 35047 ft | 518 kts | 139° |
| 2026-04-23 11:42 | 40.15439 | 21.34907 | 35031 ft | 519 kts | 139° |
| 2026-04-23 11:42 | 40.10104 | 21.41280 | 35037 ft | 520 kts | 139° |
| 2026-04-23 11:43 | 40.04762 | 21.47646 | 35038 ft | 520 kts | 139° |
| 2026-04-23 11:43 | 39.99447 | 21.53966 | 35041 ft | 521 kts | 139° |
| 2026-04-23 11:44 | 39.94086 | 21.60325 | 35050 ft | 521 kts | 139° |
| 2026-04-23 11:44 | 39.88718 | 21.66681 | 35033 ft | 522 kts | 140° |
| 2026-04-23 11:45 | 39.83343 | 21.73031 | 35042 ft | 522 kts | 140° |
| 2026-04-23 11:45 | 39.77996 | 21.79332 | 35053 ft | 523 kts | 140° |
| 2026-04-23 11:46 | 39.72600 | 21.85679 | 35055 ft | 524 kts | 140° |
| 2026-04-23 11:46 | 39.67188 | 21.92029 | 35063 ft | 525 kts | 140° |
| 2026-04-23 11:47 | 39.61759 | 21.98385 | 35052 ft | 526 kts | 141° |
| 2026-04-23 11:47 | 39.56315 | 22.04745 | 35054 ft | 528 kts | 141° |
| 2026-04-23 11:48 | 39.50891 | 22.11067 | 35061 ft | 528 kts | 141° |
| 2026-04-23 11:48 | 39.45417 | 22.17435 | 35057 ft | 529 kts | 141° |
| 2026-04-23 11:49 | 39.39933 | 22.23799 | 35074 ft | 531 kts | 141° |
| 2026-04-23 11:49 | 39.34428 | 22.30174 | 35048 ft | 531 kts | 142° |
| 2026-04-23 11:50 | 39.28960 | 22.36493 | 35061 ft | 531 kts | 142° |
| 2026-04-23 11:50 | 39.23445 | 22.42851 | 35061 ft | 532 kts | 142° |
| 2026-04-23 11:51 | 39.17928 | 22.49199 | 35053 ft | 531 kts | 142° |
| 2026-04-23 11:51 | 39.12414 | 22.55528 | 35074 ft | 531 kts | 142° |
| 2026-04-23 11:52 | 39.06931 | 22.61808 | 35056 ft | 531 kts | 143° |
| 2026-04-23 11:52 | 39.01406 | 22.68123 | 35059 ft | 532 kts | 143° |
| 2026-04-23 11:53 | 38.95873 | 22.74432 | 35060 ft | 532 kts | 143° |
| 2026-04-23 11:53 | 38.90333 | 22.80735 | 35064 ft | 532 kts | 143° |
| 2026-04-23 11:54 | 38.84787 | 22.87033 | 35065 ft | 533 kts | 143° |
| 2026-04-23 11:54 | 38.79271 | 22.93284 | 35045 ft | 533 kts | 144° |
| 2026-04-23 11:55 | 38.73713 | 22.99567 | 35058 ft | 533 kts | 144° |
| 2026-04-23 11:55 | 38.68144 | 23.05850 | 35053 ft | 534 kts | 144° |
| 2026-04-23 11:56 | 38.62570 | 23.12124 | 35048 ft | 534 kts | 144° |
| 2026-04-23 11:56 | 38.57030 | 23.18347 | 35059 ft | 534 kts | 144° |
| 2026-04-23 11:57 | 38.51448 | 23.24604 | 35028 ft | 534 kts | 144° |
| 2026-04-23 11:57 | 38.45850 | 23.30864 | 35045 ft | 535 kts | 144° |
| 2026-04-23 11:58 | 38.40254 | 23.37111 | 35043 ft | 534 kts | 144° |
| 2026-04-23 11:58 | 38.34699 | 23.43299 | 35036 ft | 533 kts | 144° |
| 2026-04-23 11:59 | 38.29120 | 23.49500 | 35040 ft | 531 kts | 144° |
| 2026-04-23 11:59 | 38.23554 | 23.55672 | 35045 ft | 530 kts | 145° |
| 2026-04-23 12:00 | 38.17991 | 23.61827 | 35044 ft | 530 kts | 145° |
| 2026-04-23 12:00 | 38.12467 | 23.67927 | 35053 ft | 530 kts | 145° |
| 2026-04-23 12:01 | 38.06900 | 23.74062 | 35046 ft | 531 kts | 145° |
| 2026-04-23 12:01 | 38.01321 | 23.80197 | 35024 ft | 530 kts | 145° |
| 2026-04-23 12:02 | 37.95741 | 23.86321 | 35015 ft | 530 kts | 145° |
| 2026-04-23 12:02 | 37.90172 | 23.92421 | 35043 ft | 529 kts | 145° |
| 2026-04-23 12:03 | 37.84635 | 23.98472 | 35046 ft | 530 kts | 145° |
| 2026-04-23 12:03 | 37.79057 | 24.04555 | 35047 ft | 529 kts | 145° |
| 2026-04-23 12:04 | 37.73478 | 24.10628 | 35045 ft | 529 kts | 145° |
| 2026-04-23 12:04 | 37.67899 | 24.16688 | 34974 ft | 529 kts | 146° |
| 2026-04-23 12:05 | 37.62332 | 24.22724 | 35012 ft | 527 kts | 146° |
| 2026-04-23 12:05 | 37.56807 | 24.28702 | 35025 ft | 527 kts | 146° |
| 2026-04-23 12:06 | 37.51435 | 24.35082 | 35007 ft | 532 kts | 141° |
| 2026-04-23 12:06 | 37.43568 | 24.44935 | 35009 ft | 531 kts | 141° |
| 2026-04-23 12:07 | 37.38321 | 24.51454 | 34966 ft | 529 kts | 141° |
| 2026-04-23 12:07 | 37.33114 | 24.57886 | 35001 ft | 528 kts | 141° |
| 2026-04-23 12:08 | 37.27868 | 24.64344 | 35015 ft | 529 kts | 142° |
| 2026-04-23 12:08 | 37.22591 | 24.70830 | 34994 ft | 532 kts | 142° |
| 2026-04-23 12:09 | 37.17314 | 24.77308 | 34991 ft | 530 kts | 142° |
| 2026-04-23 12:09 | 37.12082 | 24.83718 | 34993 ft | 529 kts | 142° |
| 2026-04-23 12:10 | 37.06820 | 24.90150 | 34983 ft | 528 kts | 142° |
| 2026-04-23 12:10 | 37.01567 | 24.96559 | 34992 ft | 527 kts | 142° |
| 2026-04-23 12:11 | 36.96310 | 25.02959 | 34986 ft | 528 kts | 142° |
| 2026-04-23 12:11 | 36.91079 | 25.09312 | 34993 ft | 528 kts | 142° |
| 2026-04-23 12:12 | 36.85762 | 25.15638 | 34994 ft | 528 kts | 142° |
| 2026-04-23 12:12 | 36.80420 | 25.21941 | 34992 ft | 529 kts | 142° |
| 2026-04-23 12:13 | 36.75080 | 25.28253 | 34993 ft | 529 kts | 142° |
| 2026-04-23 12:13 | 36.69772 | 25.34526 | 34978 ft | 529 kts | 142° |
| 2026-04-23 12:14 | 36.64430 | 25.40828 | 34977 ft | 529 kts | 142° |
| 2026-04-23 12:14 | 36.59157 | 25.47212 | 34973 ft | 529 kts | 141° |
| 2026-04-23 12:15 | 36.53921 | 25.53623 | 34967 ft | 528 kts | 141° |
| 2026-04-23 12:15 | 36.49567 | 25.58927 | 34965 ft | 527 kts | 141° |
| 2026-04-23 12:16 | 36.43473 | 25.66309 | 34959 ft | 526 kts | 141° |
| 2026-04-23 12:16 | 36.38232 | 25.72639 | 34964 ft | 525 kts | 142° |
| 2026-04-23 12:17 | 36.33880 | 25.77888 | 34969 ft | 525 kts | 142° |
| 2026-04-23 12:17 | 36.27783 | 25.85231 | 34956 ft | 525 kts | 142° |
| 2026-04-23 12:18 | 36.22537 | 25.91529 | 34957 ft | 525 kts | 142° |
| 2026-04-23 12:18 | 36.18110 | 25.96763 | 34936 ft | 525 kts | 142° |
| 2026-04-23 12:19 | 36.12857 | 26.02930 | 34946 ft | 524 kts | 143° |
| 2026-04-23 12:19 | 36.07562 | 26.09141 | 34953 ft | 525 kts | 143° |
| 2026-04-23 12:20 | 36.01399 | 26.16369 | 34950 ft | 526 kts | 143° |
| 2026-04-23 12:20 | 35.96987 | 26.21538 | 34948 ft | 526 kts | 143° |
| 2026-04-23 12:21 | 35.91667 | 26.27759 | 34930 ft | 527 kts | 143° |
| 2026-04-23 12:21 | 35.86345 | 26.33970 | 34924 ft | 527 kts | 143° |
| 2026-04-23 12:22 | 35.81021 | 26.40170 | 34940 ft | 527 kts | 143° |
| 2026-04-23 12:22 | 35.75690 | 26.46367 | 34940 ft | 527 kts | 143° |
| 2026-04-23 12:23 | 35.70389 | 26.52516 | 34936 ft | 527 kts | 143° |
| 2026-04-23 12:23 | 35.65051 | 26.58696 | 34926 ft | 527 kts | 143° |
| 2026-04-23 12:24 | 35.59708 | 26.64870 | 34929 ft | 527 kts | 143° |
| 2026-04-23 12:24 | 35.54357 | 26.71042 | 34914 ft | 527 kts | 143° |
| 2026-04-23 12:25 | 35.49045 | 26.77158 | 34928 ft | 527 kts | 143° |
| 2026-04-23 12:25 | 35.43699 | 26.83301 | 34933 ft | 527 kts | 143° |
| 2026-04-23 12:26 | 35.38342 | 26.89443 | 34925 ft | 527 kts | 143° |
| 2026-04-23 12:26 | 35.32989 | 26.95570 | 34910 ft | 527 kts | 143° |
| 2026-04-23 12:27 | 35.27673 | 27.01645 | 34912 ft | 526 kts | 143° |
| 2026-04-23 12:27 | 35.22324 | 27.07745 | 34916 ft | 526 kts | 143° |
| 2026-04-23 12:28 | 35.16974 | 27.13834 | 34915 ft | 525 kts | 143° |
| 2026-04-23 12:28 | 35.11624 | 27.19913 | 34912 ft | 525 kts | 143° |
| 2026-04-23 12:29 | 35.06312 | 27.25938 | 34919 ft | 525 kts | 143° |
| 2026-04-23 12:29 | 35.00749 | 27.31600 | 34927 ft | 519 kts | 148° |
| 2026-04-23 12:30 | 34.95054 | 27.37013 | 34920 ft | 519 kts | 148° |
| 2026-04-23 12:30 | 34.89363 | 27.42437 | 34916 ft | 519 kts | 148° |
| 2026-04-23 12:31 | 34.83730 | 27.47838 | 34904 ft | 519 kts | 148° |
| 2026-04-23 12:31 | 34.78067 | 27.53268 | 34912 ft | 518 kts | 148° |
| 2026-04-23 12:32 | 34.72404 | 27.58686 | 34919 ft | 518 kts | 148° |
| 2026-04-23 12:32 | 34.66740 | 27.64092 | 34917 ft | 517 kts | 148° |
| 2026-04-23 12:33 | 34.61117 | 27.69452 | 34905 ft | 517 kts | 148° |
| 2026-04-23 12:33 | 34.55642 | 27.75136 | 34910 ft | 524 kts | 137° |
| 2026-04-23 12:34 | 34.51430 | 27.82436 | 34911 ft | 535 kts | 120° |
| 2026-04-23 12:34 | 34.48500 | 27.90764 | 34933 ft | 538 kts | 115° |
| 2026-04-23 12:35 | 34.45681 | 27.99177 | 34919 ft | 539 kts | 115° |
| 2026-04-23 12:35 | 34.42818 | 28.07511 | 34921 ft | 539 kts | 116° |
| 2026-04-23 12:36 | 34.39889 | 28.15870 | 34923 ft | 539 kts | 116° |
| 2026-04-23 12:36 | 34.36943 | 28.24219 | 34921 ft | 539 kts | 116° |
| 2026-04-23 12:37 | 34.33996 | 28.32563 | 34920 ft | 539 kts | 116° |
| 2026-04-23 12:37 | 34.31071 | 28.40832 | 34913 ft | 538 kts | 116° |
| 2026-04-23 12:38 | 34.28126 | 28.49139 | 34918 ft | 537 kts | 116° |
| 2026-04-23 12:38 | 34.25178 | 28.57435 | 34924 ft | 537 kts | 116° |
| 2026-04-23 12:39 | 34.22225 | 28.65718 | 34925 ft | 536 kts | 116° |
| 2026-04-23 12:39 | 34.19290 | 28.73931 | 34927 ft | 536 kts | 116° |
| 2026-04-23 12:40 | 34.16329 | 28.82199 | 34923 ft | 536 kts | 116° |
| 2026-04-23 12:40 | 34.13364 | 28.90453 | 34926 ft | 536 kts | 116° |
| 2026-04-23 12:41 | 34.10395 | 28.98696 | 34917 ft | 535 kts | 116° |
| 2026-04-23 12:41 | 34.07423 | 29.06930 | 34927 ft | 535 kts | 116° |
| 2026-04-23 12:42 | 34.04469 | 29.15093 | 34929 ft | 535 kts | 116° |
| 2026-04-23 12:42 | 34.01489 | 29.23304 | 34928 ft | 535 kts | 116° |
| 2026-04-23 12:43 | 33.98506 | 29.31507 | 34924 ft | 534 kts | 116° |
| 2026-04-23 12:43 | 33.95522 | 29.39687 | 34925 ft | 533 kts | 116° |
| 2026-04-23 12:44 | 33.92555 | 29.47805 | 34930 ft | 533 kts | 116° |
| 2026-04-23 12:44 | 33.89562 | 29.55970 | 34924 ft | 533 kts | 116° |
| 2026-04-23 12:45 | 33.86567 | 29.64122 | 34930 ft | 533 kts | 116° |
| 2026-04-23 12:45 | 33.83566 | 29.72270 | 34935 ft | 533 kts | 116° |
| 2026-04-23 12:46 | 33.80578 | 29.80364 | 34930 ft | 533 kts | 117° |
| 2026-04-23 12:46 | 33.77565 | 29.88505 | 34931 ft | 533 kts | 117° |
| 2026-04-23 12:47 | 33.74549 | 29.96638 | 34939 ft | 533 kts | 117° |
| 2026-04-23 12:47 | 33.71573 | 30.04792 | 34940 ft | 533 kts | 115° |
| 2026-04-23 12:48 | 33.68738 | 30.13028 | 34927 ft | 534 kts | 115° |
| 2026-04-23 12:48 | 33.65937 | 30.21211 | 34945 ft | 533 kts | 115° |
| 2026-04-23 12:49 | 33.63091 | 30.29426 | 34942 ft | 533 kts | 115° |
| 2026-04-23 12:49 | 33.60224 | 30.37634 | 34931 ft | 533 kts | 115° |
| 2026-04-23 12:50 | 33.57354 | 30.45830 | 34941 ft | 533 kts | 115° |
| 2026-04-23 12:50 | 33.54501 | 30.53962 | 34941 ft | 532 kts | 115° |
| 2026-04-23 12:51 | 33.51626 | 30.62136 | 34940 ft | 532 kts | 115° |
| 2026-04-23 12:51 | 33.48749 | 30.70299 | 34939 ft | 532 kts | 115° |
| 2026-04-23 12:52 | 33.45865 | 30.78461 | 34942 ft | 532 kts | 115° |
| 2026-04-23 12:52 | 33.42997 | 30.86561 | 34942 ft | 532 kts | 116° |
| 2026-04-23 12:53 | 33.39841 | 30.94538 | 34937 ft | 528 kts | 123° |
| 2026-04-23 12:53 | 33.35672 | 31.01695 | 34947 ft | 522 kts | 133° |
| 2026-04-23 12:54 | 33.31082 | 31.08423 | 34940 ft | 522 kts | 133° |
| 2026-04-23 12:54 | 33.26507 | 31.15166 | 34917 ft | 522 kts | 133° |
| 2026-04-23 12:55 | 33.21990 | 31.21884 | 34942 ft | 522 kts | 133° |
| 2026-04-23 12:55 | 33.17450 | 31.28647 | 34936 ft | 522 kts | 133° |
| 2026-04-23 12:56 | 33.12910 | 31.35398 | 34941 ft | 521 kts | 133° |
| 2026-04-23 12:56 | 33.08366 | 31.42136 | 34941 ft | 521 kts | 133° |
| 2026-04-23 12:57 | 33.03847 | 31.48822 | 34943 ft | 521 kts | 133° |
| 2026-04-23 12:57 | 32.99295 | 31.55546 | 34942 ft | 521 kts | 133° |
| 2026-04-23 12:58 | 32.94739 | 31.62264 | 34948 ft | 521 kts | 133° |
| 2026-04-23 12:58 | 32.90181 | 31.68973 | 34948 ft | 521 kts | 133° |
| 2026-04-23 12:59 | 32.85648 | 31.75633 | 34933 ft | 521 kts | 133° |
| 2026-04-23 12:59 | 32.81081 | 31.82330 | 34939 ft | 521 kts | 133° |
| 2026-04-23 13:00 | 32.76513 | 31.89018 | 34949 ft | 521 kts | 133° |
| 2026-04-23 13:00 | 32.71940 | 31.95703 | 34951 ft | 521 kts | 133° |
| 2026-04-23 13:01 | 32.67362 | 32.02384 | 34949 ft | 522 kts | 133° |
| 2026-04-23 13:01 | 32.62535 | 32.08674 | 34938 ft | 516 kts | 142° |
| 2026-04-23 13:02 | 32.56927 | 32.13858 | 34951 ft | 509 kts | 150° |
| 2026-04-23 13:02 | 32.51131 | 32.18677 | 34922 ft | 509 kts | 150° |
| 2026-04-23 13:03 | 32.45354 | 32.23533 | 34947 ft | 510 kts | 149° |
| 2026-04-23 13:03 | 32.39626 | 32.28386 | 34941 ft | 510 kts | 149° |
| 2026-04-23 13:04 | 32.33855 | 32.33275 | 34948 ft | 510 kts | 149° |
| 2026-04-23 13:04 | 32.28082 | 32.38153 | 34940 ft | 510 kts | 149° |
| 2026-04-23 13:05 | 32.22313 | 32.43019 | 34947 ft | 510 kts | 149° |
| 2026-04-23 13:05 | 32.16583 | 32.47844 | 34938 ft | 509 kts | 149° |
| 2026-04-23 13:06 | 32.07932 | 32.55106 | 34946 ft | 509 kts | 149° |
| 2026-04-23 13:07 | 32.02154 | 32.59947 | 34945 ft | 509 kts | 149° |
| 2026-04-23 13:07 | 31.96380 | 32.64780 | 34959 ft | 509 kts | 150° |
| 2026-04-23 13:08 | 31.90641 | 32.69577 | 34925 ft | 509 kts | 150° |
| 2026-04-23 13:08 | 31.84868 | 32.74393 | 34960 ft | 509 kts | 150° |
| 2026-04-23 13:09 | 31.79096 | 32.79203 | 34959 ft | 508 kts | 150° |
| 2026-04-23 13:09 | 31.73322 | 32.84005 | 34961 ft | 508 kts | 150° |
| 2026-04-23 13:10 | 31.67589 | 32.88766 | 34960 ft | 508 kts | 150° |
| 2026-04-23 13:10 | 31.61820 | 32.93551 | 34958 ft | 507 kts | 150° |
| 2026-04-23 13:11 | 31.56058 | 32.98322 | 34966 ft | 506 kts | 150° |
| 2026-04-23 13:11 | 31.50302 | 33.03080 | 34968 ft | 506 kts | 150° |
| 2026-04-23 13:12 | 31.44553 | 33.07827 | 34968 ft | 506 kts | 150° |
| 2026-04-23 13:12 | 31.38842 | 33.12535 | 34967 ft | 505 kts | 150° |
| 2026-04-23 13:13 | 31.32900 | 33.16827 | 34965 ft | 499 kts | 157° |
| 2026-04-23 13:13 | 31.26774 | 33.20634 | 34978 ft | 498 kts | 158° |
| 2026-04-23 13:14 | 31.20648 | 33.24435 | 34980 ft | 499 kts | 157° |
| 2026-04-23 13:14 | 31.14571 | 33.28241 | 34973 ft | 499 kts | 157° |
| 2026-04-23 13:15 | 31.08457 | 33.32085 | 34976 ft | 499 kts | 157° |
| 2026-04-23 13:15 | 31.02342 | 33.35927 | 34975 ft | 499 kts | 157° |
| 2026-04-23 13:16 | 30.96226 | 33.39761 | 34965 ft | 499 kts | 157° |
| 2026-04-23 13:16 | 30.90153 | 33.43562 | 34963 ft | 499 kts | 157° |
| 2026-04-23 13:17 | 30.84034 | 33.47385 | 34972 ft | 499 kts | 157° |
| 2026-04-23 13:17 | 30.77912 | 33.51204 | 34951 ft | 499 kts | 157° |
| 2026-04-23 13:18 | 30.71790 | 33.55019 | 34930 ft | 500 kts | 157° |
| 2026-04-23 13:18 | 30.65701 | 33.58807 | 34946 ft | 500 kts | 158° |
| 2026-04-23 13:19 | 30.59569 | 33.62616 | 34944 ft | 500 kts | 158° |
| 2026-04-23 13:19 | 30.53435 | 33.66421 | 34939 ft | 500 kts | 158° |
| 2026-04-23 13:20 | 30.47299 | 33.70222 | 34924 ft | 500 kts | 158° |
| 2026-04-23 13:20 | 30.41164 | 33.74017 | 34914 ft | 500 kts | 158° |
| 2026-04-23 13:21 | 30.35070 | 33.77782 | 34920 ft | 500 kts | 158° |
| 2026-04-23 13:21 | 30.28933 | 33.81567 | 34914 ft | 500 kts | 158° |
| 2026-04-23 13:22 | 30.22792 | 33.85349 | 34916 ft | 500 kts | 158° |
| 2026-04-23 13:22 | 30.16643 | 33.89131 | 34906 ft | 501 kts | 158° |
| 2026-04-23 13:23 | 30.10531 | 33.92885 | 34903 ft | 501 kts | 158° |
| 2026-04-23 13:23 | 30.04377 | 33.96660 | 34891 ft | 501 kts | 158° |
| 2026-04-23 13:24 | 29.98223 | 34.00429 | 34895 ft | 500 kts | 158° |
| 2026-04-23 13:24 | 29.92072 | 34.04191 | 34894 ft | 500 kts | 158° |
| 2026-04-23 13:25 | 29.85928 | 34.07944 | 34866 ft | 500 kts | 158° |
| 2026-04-23 13:25 | 29.79829 | 34.11664 | 34890 ft | 499 kts | 158° |
| 2026-04-23 13:26 | 29.73693 | 34.15402 | 34890 ft | 499 kts | 158° |
| 2026-04-23 13:26 | 29.67552 | 34.19139 | 34888 ft | 498 kts | 157° |
| 2026-04-23 13:26 | 29.64673 | 34.21384 | 34881 ft | 508 kts | 142° |
| 2026-04-23 13:27 | 29.62434 | 34.24509 | 34885 ft | 521 kts | 124° |
| 2026-04-23 13:27 | 29.60971 | 34.28353 | 34895 ft | 531 kts | 109° |
| 2026-04-23 13:27 | 29.60425 | 34.32571 | 34875 ft | 537 kts | 92° |
| 2026-04-23 13:28 | 29.60641 | 34.41182 | 34893 ft | 541 kts | 90° |
| 2026-04-23 13:28 | 29.60733 | 34.49858 | 34877 ft | 544 kts | 92° |
| 2026-04-23 13:29 | 29.59878 | 34.58321 | 34871 ft | 533 kts | 115° |
| 2026-04-23 13:29 | 29.58239 | 34.62088 | 34887 ft | 524 kts | 128° |
| 2026-04-23 13:29 | 29.55982 | 34.65320 | 34861 ft | 514 kts | 142° |
| 2026-04-23 13:30 | 29.50424 | 34.70304 | 34866 ft | 509 kts | 148° |
| 2026-04-23 13:30 | 29.45482 | 34.76188 | 34851 ft | 526 kts | 126° |
| 2026-04-23 13:30 | 29.43856 | 34.79980 | 34845 ft | 536 kts | 114° |
| 2026-04-23 13:31 | 29.42942 | 34.84151 | 34853 ft | 543 kts | 101° |
| 2026-04-23 13:31 | 29.42195 | 34.92730 | 34849 ft | 547 kts | 94° |
| 2026-04-23 13:32 | 29.42564 | 35.01463 | 34848 ft | 551 kts | 84° |
| 2026-04-23 13:32 | 29.44241 | 35.10048 | 34859 ft | 553 kts | 75° |
| 2026-04-23 13:33 | 29.46374 | 35.18532 | 34878 ft | 553 kts | 75° |
| 2026-04-23 13:33 | 29.48445 | 35.27041 | 34867 ft | 554 kts | 76° |
| 2026-04-23 13:34 | 29.50428 | 35.35530 | 34912 ft | 555 kts | 76° |
| 2026-04-23 13:34 | 29.52417 | 35.44085 | 34878 ft | 554 kts | 76° |
| 2026-04-23 13:35 | 29.54412 | 35.52616 | 34868 ft | 552 kts | 76° |
| 2026-04-23 13:35 | 29.56419 | 35.61122 | 34887 ft | 552 kts | 76° |
| 2026-04-23 13:36 | 29.58409 | 35.69585 | 34885 ft | 553 kts | 76° |
| 2026-04-23 13:36 | 29.60406 | 35.78120 | 34895 ft | 554 kts | 76° |
| 2026-04-23 13:37 | 29.62118 | 35.86742 | 34884 ft | 553 kts | 81° |
| 2026-04-23 13:37 | 29.63506 | 35.95436 | 34881 ft | 553 kts | 81° |
| 2026-04-23 13:38 | 29.64877 | 36.04075 | 34885 ft | 553 kts | 81° |
| 2026-04-23 13:38 | 29.66291 | 36.12777 | 34878 ft | 554 kts | 81° |
| 2026-04-23 13:39 | 29.67710 | 36.21478 | 34886 ft | 553 kts | 81° |
| 2026-04-23 13:39 | 29.69118 | 36.30176 | 34884 ft | 553 kts | 81° |
| 2026-04-23 13:40 | 29.70520 | 36.38881 | 34888 ft | 553 kts | 81° |
| 2026-04-23 13:40 | 29.71926 | 36.47521 | 34890 ft | 553 kts | 81° |
| 2026-04-23 13:41 | 29.73341 | 36.56234 | 34888 ft | 555 kts | 81° |
| 2026-04-23 13:41 | 29.74496 | 36.65007 | 34900 ft | 555 kts | 90° |
| 2026-04-23 13:42 | 29.74210 | 36.73839 | 34907 ft | 551 kts | 101° |
| 2026-04-23 13:42 | 29.72637 | 36.82428 | 34910 ft | 549 kts | 108° |
| 2026-04-23 13:43 | 29.70851 | 36.90904 | 34909 ft | 549 kts | 108° |
| 2026-04-23 13:43 | 29.69098 | 36.99450 | 34897 ft | 548 kts | 107° |
| 2026-04-23 13:44 | 29.67385 | 37.07986 | 34912 ft | 548 kts | 108° |
| 2026-04-23 13:44 | 29.65676 | 37.16511 | 34924 ft | 547 kts | 108° |
| 2026-04-23 13:45 | 29.63969 | 37.24980 | 34903 ft | 548 kts | 108° |
| 2026-04-23 13:45 | 29.62236 | 37.33521 | 34914 ft | 549 kts | 108° |
| 2026-04-23 13:46 | 29.60491 | 37.42090 | 34928 ft | 552 kts | 108° |
| 2026-04-23 13:46 | 29.58735 | 37.50692 | 34902 ft | 554 kts | 109° |
| 2026-04-23 13:47 | 29.56977 | 37.59275 | 34936 ft | 556 kts | 109° |
| 2026-04-23 13:47 | 29.55198 | 37.67933 | 34924 ft | 558 kts | 109° |
| 2026-04-23 13:48 | 29.53408 | 37.76611 | 34917 ft | 559 kts | 109° |
| 2026-04-23 13:48 | 29.51613 | 37.85287 | 34916 ft | 559 kts | 109° |
| 2026-04-23 13:49 | 29.49823 | 37.93904 | 34913 ft | 559 kts | 109° |
| 2026-04-23 13:49 | 29.48042 | 38.02586 | 34910 ft | 560 kts | 108° |
| 2026-04-23 13:50 | 29.46480 | 38.11357 | 34923 ft | 562 kts | 107° |
| 2026-04-23 13:50 | 29.44987 | 38.20111 | 34916 ft | 563 kts | 107° |
| 2026-04-23 13:51 | 29.43439 | 38.28926 | 34915 ft | 564 kts | 107° |
| 2026-04-23 13:51 | 29.41855 | 38.37753 | 34921 ft | 566 kts | 108° |
| 2026-04-23 13:52 | 29.40258 | 38.46593 | 34926 ft | 566 kts | 108° |
| 2026-04-23 13:52 | 29.38658 | 38.55442 | 34947 ft | 566 kts | 107° |
| 2026-04-23 13:53 | 29.37070 | 38.64206 | 34926 ft | 564 kts | 107° |
| 2026-04-23 13:53 | 29.35471 | 38.72992 | 34908 ft | 562 kts | 108° |
| 2026-04-23 13:54 | 29.33870 | 38.81744 | 34935 ft | 561 kts | 108° |
| 2026-04-23 13:54 | 29.32264 | 38.90493 | 34923 ft | 561 kts | 108° |
| 2026-04-23 13:55 | 29.30529 | 38.99140 | 34936 ft | 561 kts | 109° |
| 2026-04-23 13:55 | 29.28664 | 39.07833 | 34948 ft | 563 kts | 110° |
| 2026-04-23 13:56 | 29.26799 | 39.16570 | 34935 ft | 566 kts | 110° |
| 2026-04-23 13:56 | 29.24945 | 39.25361 | 34957 ft | 570 kts | 109° |
| 2026-04-23 13:57 | 29.23096 | 39.34138 | 34959 ft | 572 kts | 109° |
| 2026-04-23 13:57 | 29.21218 | 39.43011 | 34952 ft | 575 kts | 110° |
| 2026-04-23 13:58 | 29.19322 | 39.51926 | 34967 ft | 577 kts | 110° |
| 2026-04-23 13:58 | 29.17416 | 39.60856 | 34949 ft | 578 kts | 110° |
| 2026-04-23 13:59 | 29.15504 | 39.69787 | 34979 ft | 578 kts | 110° |
| 2026-04-23 13:59 | 29.13597 | 39.78665 | 34967 ft | 579 kts | 110° |
| 2026-04-23 14:00 | 29.11774 | 39.85976 | 34976 ft | 568 kts | 120° |
| 2026-04-23 14:00 | 29.09374 | 39.91244 | 34986 ft | 552 kts | 132° |
| 2026-04-23 14:00 | 29.07146 | 39.94778 | 34989 ft | 543 kts | 139° |
| 2026-04-23 14:00 | 29.04595 | 39.97865 | 34981 ft | 528 kts | 148° |
| 2026-04-23 14:01 | 29.01890 | 40.00693 | 34989 ft | 527 kts | 148° |
| 2026-04-23 14:01 | 28.96505 | 40.06313 | 34967 ft | 529 kts | 148° |
| 2026-04-23 14:02 | 28.91097 | 40.12047 | 34983 ft | 531 kts | 147° |
| 2026-04-23 14:02 | 28.85696 | 40.17832 | 34985 ft | 533 kts | 147° |
| 2026-04-23 14:03 | 28.80292 | 40.23625 | 34988 ft | 534 kts | 147° |
| 2026-04-23 14:03 | 28.74915 | 40.29375 | 34982 ft | 533 kts | 147° |
| 2026-04-23 14:04 | 28.69500 | 40.35151 | 34987 ft | 533 kts | 147° |
| 2026-04-23 14:04 | 28.64078 | 40.40923 | 34982 ft | 534 kts | 147° |
| 2026-04-23 14:05 | 28.58654 | 40.46689 | 34983 ft | 534 kts | 147° |
| 2026-04-23 14:05 | 28.53264 | 40.52412 | 34978 ft | 534 kts | 147° |
| 2026-04-23 14:06 | 28.47833 | 40.58169 | 34985 ft | 534 kts | 147° |
| 2026-04-23 14:06 | 28.42396 | 40.63925 | 34966 ft | 534 kts | 147° |
| 2026-04-23 14:07 | 28.36953 | 40.69678 | 34979 ft | 535 kts | 147° |
| 2026-04-23 14:07 | 28.28812 | 40.78267 | 34984 ft | 536 kts | 147° |
| 2026-04-23 14:08 | 28.23350 | 40.84020 | 34978 ft | 536 kts | 147° |
| 2026-04-23 14:08 | 28.17880 | 40.89773 | 34977 ft | 536 kts | 147° |
| 2026-04-23 14:09 | 28.12409 | 40.95518 | 34960 ft | 536 kts | 147° |
| 2026-04-23 14:09 | 28.06974 | 41.01218 | 34969 ft | 536 kts | 147° |
| 2026-04-23 14:10 | 28.01515 | 41.06935 | 34969 ft | 534 kts | 146° |
| 2026-04-23 14:10 | 27.96058 | 41.12643 | 34966 ft | 534 kts | 146° |
| 2026-04-23 14:11 | 27.90618 | 41.18324 | 34959 ft | 531 kts | 146° |
| 2026-04-23 14:11 | 27.85203 | 41.23976 | 34955 ft | 529 kts | 146° |
| 2026-04-23 14:12 | 27.79843 | 41.29566 | 34964 ft | 528 kts | 146° |
| 2026-04-23 14:12 | 27.74447 | 41.35184 | 34947 ft | 527 kts | 146° |
| 2026-04-23 14:13 | 27.69063 | 41.40782 | 34941 ft | 526 kts | 145° |
| 2026-04-23 14:13 | 27.63672 | 41.46381 | 34963 ft | 527 kts | 145° |
| 2026-04-23 14:14 | 27.58272 | 41.51982 | 34976 ft | 528 kts | 145° |
| 2026-04-23 14:14 | 27.52887 | 41.57558 | 34951 ft | 529 kts | 145° |
| 2026-04-23 14:15 | 27.47463 | 41.63173 | 34952 ft | 529 kts | 145° |
| 2026-04-23 14:15 | 27.42344 | 41.69222 | 34968 ft | 541 kts | 135° |
| 2026-04-23 14:16 | 27.38119 | 41.76327 | 34971 ft | 551 kts | 126° |
| 2026-04-23 14:16 | 27.34312 | 41.83754 | 34965 ft | 552 kts | 126° |
| 2026-04-23 14:17 | 27.30456 | 41.91210 | 34962 ft | 552 kts | 126° |
| 2026-04-23 14:17 | 27.26551 | 41.98634 | 34962 ft | 551 kts | 127° |
| 2026-04-23 14:18 | 27.22640 | 42.06026 | 34953 ft | 549 kts | 127° |
| 2026-04-23 14:18 | 27.18761 | 42.13352 | 34958 ft | 549 kts | 127° |
| 2026-04-23 14:19 | 27.14862 | 42.20711 | 34954 ft | 548 kts | 127° |
| 2026-04-23 14:19 | 27.10960 | 42.28068 | 34960 ft | 548 kts | 127° |
| 2026-04-23 14:20 | 27.07052 | 42.35417 | 34965 ft | 548 kts | 127° |
| 2026-04-23 14:20 | 27.03126 | 42.42756 | 34954 ft | 549 kts | 127° |
| 2026-04-23 14:21 | 26.99192 | 42.50098 | 34959 ft | 550 kts | 127° |
| 2026-04-23 14:21 | 26.95277 | 42.57396 | 34962 ft | 550 kts | 127° |
| 2026-04-23 14:22 | 26.91325 | 42.64757 | 34947 ft | 551 kts | 127° |
| 2026-04-23 14:22 | 26.87373 | 42.72105 | 34960 ft | 551 kts | 127° |
| 2026-04-23 14:23 | 26.83411 | 42.79458 | 34962 ft | 551 kts | 127° |
| 2026-04-23 14:23 | 26.79471 | 42.86760 | 34957 ft | 552 kts | 127° |
| 2026-04-23 14:24 | 26.75501 | 42.94104 | 34962 ft | 551 kts | 127° |
| 2026-04-23 14:24 | 26.71530 | 43.01439 | 34962 ft | 551 kts | 127° |
| 2026-04-23 14:25 | 26.67559 | 43.08765 | 34957 ft | 550 kts | 127° |
| 2026-04-23 14:25 | 26.63617 | 43.16024 | 34958 ft | 550 kts | 127° |
| 2026-04-23 14:26 | 26.59651 | 43.23327 | 34942 ft | 549 kts | 127° |
| 2026-04-23 14:26 | 26.55695 | 43.30611 | 34955 ft | 548 kts | 127° |
| 2026-04-23 14:27 | 26.51741 | 43.37881 | 34943 ft | 547 kts | 127° |
| 2026-04-23 14:27 | 26.47821 | 43.45075 | 34933 ft | 545 kts | 128° |
| 2026-04-23 14:28 | 26.43879 | 43.52296 | 34949 ft | 544 kts | 128° |
| 2026-04-23 14:28 | 26.39943 | 43.59496 | 34943 ft | 543 kts | 128° |
| 2026-04-23 14:29 | 26.36010 | 43.66678 | 34928 ft | 542 kts | 128° |
| 2026-04-23 14:29 | 26.32111 | 43.73790 | 34935 ft | 541 kts | 128° |
| 2026-04-23 14:30 | 26.28320 | 43.81049 | 34938 ft | 544 kts | 124° |
| 2026-04-23 14:30 | 26.24885 | 43.88566 | 34935 ft | 544 kts | 123° |
| 2026-04-23 14:31 | 26.21484 | 43.96083 | 34943 ft | 543 kts | 123° |
| 2026-04-23 14:31 | 26.18056 | 44.03572 | 34938 ft | 542 kts | 123° |
| 2026-04-23 14:32 | 26.14643 | 44.10973 | 34952 ft | 540 kts | 123° |
| 2026-04-23 14:32 | 26.11207 | 44.18404 | 34958 ft | 540 kts | 123° |
| 2026-04-23 14:33 | 26.07775 | 44.25820 | 34955 ft | 539 kts | 123° |
| 2026-04-23 14:33 | 26.04345 | 44.33223 | 34969 ft | 539 kts | 123° |
| 2026-04-23 14:34 | 26.00931 | 44.40579 | 34958 ft | 539 kts | 123° |
| 2026-04-23 14:34 | 25.97496 | 44.47969 | 34976 ft | 538 kts | 123° |
| 2026-04-23 14:35 | 25.94058 | 44.55352 | 34972 ft | 538 kts | 123° |
| 2026-04-23 14:35 | 25.90617 | 44.62729 | 34951 ft | 537 kts | 123° |
| 2026-04-23 14:36 | 25.87205 | 44.70036 | 34974 ft | 536 kts | 123° |
| 2026-04-23 14:36 | 25.83766 | 44.77379 | 34973 ft | 535 kts | 123° |
| 2026-04-23 14:37 | 25.80327 | 44.84698 | 34972 ft | 535 kts | 123° |
| 2026-04-23 14:37 | 25.76886 | 44.92013 | 34973 ft | 534 kts | 123° |
| 2026-04-23 14:38 | 25.73445 | 44.99318 | 34975 ft | 534 kts | 123° |
| 2026-04-23 14:38 | 25.70025 | 45.06569 | 34933 ft | 534 kts | 123° |
| 2026-04-23 14:39 | 25.66582 | 45.13860 | 34964 ft | 533 kts | 123° |
| 2026-04-23 14:39 | 25.63135 | 45.21139 | 34988 ft | 533 kts | 123° |
| 2026-04-23 14:40 | 25.59679 | 45.28423 | 34971 ft | 534 kts | 123° |
| 2026-04-23 14:40 | 25.56246 | 45.35655 | 34976 ft | 534 kts | 123° |
| 2026-04-23 14:41 | 25.52781 | 45.42941 | 34981 ft | 535 kts | 123° |
| 2026-04-23 14:41 | 25.49311 | 45.50227 | 34981 ft | 535 kts | 123° |
| 2026-04-23 14:42 | 25.45832 | 45.57520 | 34969 ft | 536 kts | 123° |
| 2026-04-23 14:42 | 25.42365 | 45.64775 | 34988 ft | 537 kts | 123° |
| 2026-04-23 14:43 | 25.38867 | 45.72088 | 34993 ft | 539 kts | 123° |
| 2026-04-23 14:43 | 25.35358 | 45.79413 | 35007 ft | 540 kts | 123° |
| 2026-04-23 14:44 | 25.32066 | 45.86917 | 34979 ft | 544 kts | 119° |
| 2026-04-23 14:44 | 25.28948 | 45.94486 | 34996 ft | 545 kts | 119° |
| 2026-04-23 14:45 | 25.25770 | 46.02104 | 35006 ft | 547 kts | 120° |
| 2026-04-23 14:45 | 25.22531 | 46.09723 | 35005 ft | 548 kts | 120° |
| 2026-04-23 14:46 | 25.19278 | 46.17330 | 35002 ft | 548 kts | 120° |
| 2026-04-23 14:46 | 25.16575 | 46.23653 | 35001 ft | 548 kts | 120° |
| 2026-04-23 14:47 | 25.12797 | 46.32481 | 34997 ft | 547 kts | 120° |
| 2026-04-23 14:47 | 25.09546 | 46.40067 | 35003 ft | 546 kts | 120° |
| 2026-04-23 14:48 | 25.06298 | 46.47630 | 35000 ft | 545 kts | 120° |
| 2026-04-23 14:48 | 25.03601 | 46.53904 | 35007 ft | 544 kts | 120° |
| 2026-04-23 14:49 | 24.99688 | 46.62554 | 34987 ft | 536 kts | 129° |
| 2026-04-23 14:49 | 24.97339 | 46.65693 | 35003 ft | 526 kts | 142° |
| 2026-04-23 14:49 | 24.94560 | 46.68245 | 34993 ft | 517 kts | 152° |
| 2026-04-23 14:50 | 24.91479 | 46.70196 | 34990 ft | 504 kts | 163° |
| 2026-04-23 14:50 | 24.89335 | 46.71170 | 35008 ft | 503 kts | 165° |
| 2026-04-23 14:50 | 24.82825 | 46.74079 | 34999 ft | 507 kts | 164° |
| 2026-04-23 14:51 | 24.76288 | 46.77088 | 34980 ft | 511 kts | 164° |
| 2026-04-23 14:51 | 24.69730 | 46.80164 | 34988 ft | 513 kts | 164° |
| 2026-04-23 14:52 | 24.63196 | 46.83236 | 34981 ft | 515 kts | 164° |
| 2026-04-23 14:52 | 24.56624 | 46.86372 | 34941 ft | 516 kts | 159° |
| 2026-04-23 14:53 | 24.53685 | 46.88735 | 34976 ft | 536 kts | 140° |
| 2026-04-23 14:53 | 24.51458 | 46.92091 | 35070 ft | 555 kts | 121° |
| 2026-04-23 14:53 | 24.50200 | 46.96126 | 35309 ft | 565 kts | 101° |
| 2026-04-23 14:53 | 24.49821 | 47.00416 | 35663 ft | 564 kts | 96° |
| 2026-04-23 14:54 | 24.49312 | 47.04678 | 35960 ft | 562 kts | 106° |
| 2026-04-23 14:54 | 24.48096 | 47.08722 | 36226 ft | 556 kts | 117° |
| 2026-04-23 14:54 | 24.46480 | 47.12497 | 36521 ft | 553 kts | 120° |
| 2026-04-23 14:54 | 24.44865 | 47.16338 | 36817 ft | 556 kts | 116° |
| 2026-04-23 14:55 | 24.42544 | 47.24508 | 36954 ft | 566 kts | 106° |
| 2026-04-23 14:55 | 24.40720 | 47.32953 | 36935 ft | 569 kts | 105° |
| 2026-04-23 14:56 | 24.38891 | 47.41373 | 36941 ft | 567 kts | 106° |
| 2026-04-23 14:56 | 24.36992 | 47.49702 | 36927 ft | 567 kts | 107° |
| 2026-04-23 14:57 | 24.35045 | 47.58072 | 36916 ft | 566 kts | 107° |
| 2026-04-23 14:57 | 24.33097 | 47.66428 | 36935 ft | 566 kts | 107° |
| 2026-04-23 14:58 | 24.31151 | 47.74789 | 36935 ft | 566 kts | 107° |
| 2026-04-23 14:58 | 24.29213 | 47.83102 | 36920 ft | 567 kts | 107° |
| 2026-04-23 14:59 | 24.27257 | 47.91473 | 36908 ft | 567 kts | 107° |
| 2026-04-23 14:59 | 24.25293 | 47.99854 | 36910 ft | 568 kts | 107° |
| 2026-04-23 15:00 | 24.23323 | 48.08234 | 36895 ft | 568 kts | 107° |
| 2026-04-23 15:00 | 24.21360 | 48.16564 | 36899 ft | 569 kts | 107° |
| 2026-04-23 15:01 | 24.19377 | 48.24959 | 36900 ft | 569 kts | 107° |
| 2026-04-23 15:01 | 24.17390 | 48.33348 | 36891 ft | 569 kts | 107° |
| 2026-04-23 15:02 | 24.15399 | 48.41732 | 36871 ft | 568 kts | 107° |
| 2026-04-23 15:02 | 24.13408 | 48.50100 | 36884 ft | 568 kts | 107° |
| 2026-04-23 15:03 | 24.11423 | 48.58412 | 36877 ft | 568 kts | 107° |
| 2026-04-23 15:03 | 24.09418 | 48.66782 | 36882 ft | 568 kts | 107° |
| 2026-04-23 15:04 | 24.07409 | 48.75151 | 36873 ft | 568 kts | 107° |
| 2026-04-23 15:04 | 24.05397 | 48.83512 | 36862 ft | 568 kts | 107° |
| 2026-04-23 15:05 | 24.03398 | 48.91801 | 36870 ft | 567 kts | 107° |
| 2026-04-23 15:05 | 24.01382 | 49.00140 | 36872 ft | 567 kts | 107° |
| 2026-04-23 15:06 | 23.99362 | 49.08470 | 36875 ft | 566 kts | 107° |
| 2026-04-23 15:06 | 23.97340 | 49.16792 | 36867 ft | 566 kts | 107° |
| 2026-04-23 15:07 | 23.95314 | 49.25110 | 36853 ft | 566 kts | 107° |
| 2026-04-23 15:07 | 23.93294 | 49.33369 | 36867 ft | 566 kts | 107° |
| 2026-04-23 15:08 | 23.91254 | 49.41693 | 36871 ft | 567 kts | 107° |
| 2026-04-23 15:09 | 23.88185 | 49.54184 | 36871 ft | 568 kts | 107° |
| 2026-04-23 15:09 | 23.86130 | 49.62521 | 36866 ft | 569 kts | 107° |
| 2026-04-23 15:10 | 23.84081 | 49.70812 | 36856 ft | 569 kts | 106° |
| 2026-04-23 15:10 | 23.82017 | 49.79147 | 36867 ft | 569 kts | 107° |
| 2026-04-23 15:11 | 23.79947 | 49.87485 | 36860 ft | 569 kts | 107° |
| 2026-04-23 15:11 | 23.77874 | 49.95813 | 36861 ft | 568 kts | 107° |
| 2026-04-23 15:12 | 23.75812 | 50.04075 | 36863 ft | 568 kts | 107° |
| 2026-04-23 15:12 | 23.73732 | 50.12388 | 36838 ft | 567 kts | 107° |
| 2026-04-23 15:13 | 23.71653 | 50.20680 | 36861 ft | 566 kts | 107° |
| 2026-04-23 15:13 | 23.69570 | 50.28967 | 36847 ft | 566 kts | 107° |
| 2026-04-23 15:14 | 23.67497 | 50.37193 | 36853 ft | 566 kts | 107° |
| 2026-04-23 15:14 | 23.65405 | 50.45476 | 36858 ft | 566 kts | 107° |
| 2026-04-23 15:15 | 23.63309 | 50.53750 | 36849 ft | 566 kts | 107° |
| 2026-04-23 15:15 | 23.61208 | 50.62029 | 36847 ft | 566 kts | 107° |
| 2026-04-23 15:16 | 23.59103 | 50.70303 | 36849 ft | 566 kts | 107° |
| 2026-04-23 15:16 | 23.57009 | 50.78513 | 36845 ft | 566 kts | 107° |
| 2026-04-23 15:17 | 23.54898 | 50.86771 | 36843 ft | 566 kts | 107° |
| 2026-04-23 15:17 | 23.52782 | 50.95028 | 36846 ft | 566 kts | 107° |
| 2026-04-23 15:18 | 23.50661 | 51.03282 | 36830 ft | 565 kts | 107° |
| 2026-04-23 15:18 | 23.48555 | 51.11464 | 36838 ft | 565 kts | 107° |
| 2026-04-23 15:19 | 23.46429 | 51.19702 | 36846 ft | 565 kts | 107° |
| 2026-04-23 15:19 | 23.44297 | 51.27943 | 36845 ft | 565 kts | 107° |
| 2026-04-23 15:20 | 23.42161 | 51.36180 | 36845 ft | 566 kts | 107° |
| 2026-04-23 15:20 | 23.40034 | 51.44364 | 36843 ft | 566 kts | 107° |
| 2026-04-23 15:21 | 23.37889 | 51.52597 | 36851 ft | 565 kts | 107° |
| 2026-04-23 15:21 | 23.35740 | 51.60827 | 36847 ft | 565 kts | 107° |
| 2026-04-23 15:22 | 23.33586 | 51.69056 | 36836 ft | 565 kts | 107° |
| 2026-04-23 15:22 | 23.32128 | 51.77374 | 36847 ft | 559 kts | 84° |
| 2026-04-23 15:22 | 23.32730 | 51.81534 | 36862 ft | 555 kts | 73° |
| 2026-04-23 15:23 | 23.33748 | 51.85520 | 36851 ft | 555 kts | 70° |
| 2026-04-23 15:23 | 23.35756 | 51.93658 | 36833 ft | 559 kts | 75° |
| 2026-04-23 15:24 | 23.37148 | 52.02005 | 36846 ft | 562 kts | 79° |
| 2026-04-23 15:24 | 23.38272 | 52.10437 | 36836 ft | 563 kts | 79° |
| 2026-04-23 15:25 | 23.39430 | 52.18862 | 36847 ft | 563 kts | 79° |
| 2026-04-23 15:25 | 23.40630 | 52.27219 | 36836 ft | 562 kts | 78° |
| 2026-04-23 15:26 | 23.41864 | 52.35624 | 36836 ft | 561 kts | 76° |
| 2026-04-23 15:26 | 23.43501 | 52.43907 | 36836 ft | 559 kts | 74° |
| 2026-04-23 15:27 | 23.45173 | 52.52179 | 36818 ft | 559 kts | 75° |
| 2026-04-23 15:27 | 23.46777 | 52.60403 | 36840 ft | 559 kts | 75° |
| 2026-04-23 15:28 | 23.48381 | 52.68684 | 36848 ft | 558 kts | 75° |
| 2026-04-23 15:28 | 23.49985 | 52.76952 | 36843 ft | 558 kts | 75° |
| 2026-04-23 15:29 | 23.51588 | 52.85216 | 36832 ft | 557 kts | 75° |
| 2026-04-23 15:29 | 23.53176 | 52.93419 | 36848 ft | 557 kts | 75° |
| 2026-04-23 15:30 | 23.54771 | 53.01684 | 36852 ft | 557 kts | 75° |
| 2026-04-23 15:30 | 23.56359 | 53.09942 | 36837 ft | 557 kts | 75° |
| 2026-04-23 15:31 | 23.57941 | 53.18196 | 36838 ft | 557 kts | 75° |
| 2026-04-23 15:31 | 23.59519 | 53.26456 | 36845 ft | 557 kts | 75° |
| 2026-04-23 15:32 | 23.61084 | 53.34665 | 36839 ft | 556 kts | 75° |
| 2026-04-23 15:32 | 23.62653 | 53.42924 | 36846 ft | 556 kts | 75° |
| 2026-04-23 15:33 | 23.64217 | 53.51184 | 36844 ft | 556 kts | 75° |
| 2026-04-23 15:33 | 23.65778 | 53.59450 | 36841 ft | 556 kts | 75° |
| 2026-04-23 15:34 | 23.67323 | 53.67658 | 36840 ft | 556 kts | 75° |
| 2026-04-23 15:34 | 23.68874 | 53.75919 | 36840 ft | 556 kts | 75° |
| 2026-04-23 15:35 | 23.70421 | 53.84187 | 36841 ft | 556 kts | 75° |
| 2026-04-23 15:35 | 23.71964 | 53.92458 | 36840 ft | 556 kts | 75° |
| 2026-04-23 15:36 | 23.73491 | 54.00670 | 36840 ft | 556 kts | 75° |
| 2026-04-23 15:36 | 23.75023 | 54.08934 | 36836 ft | 556 kts | 75° |
| 2026-04-23 15:37 | 23.76550 | 54.17199 | 36833 ft | 555 kts | 75° |
| 2026-04-23 15:37 | 23.78073 | 54.25462 | 36835 ft | 555 kts | 75° |
| 2026-04-23 15:38 | 23.79591 | 54.33731 | 36832 ft | 555 kts | 75° |
| 2026-04-23 15:38 | 23.81093 | 54.41936 | 36826 ft | 555 kts | 75° |
| 2026-04-23 15:39 | 23.82601 | 54.50197 | 36824 ft | 555 kts | 75° |
| 2026-04-23 15:39 | 23.84103 | 54.58454 | 36822 ft | 554 kts | 75° |
| 2026-04-23 15:40 | 23.85601 | 54.66710 | 36810 ft | 554 kts | 75° |
| 2026-04-23 15:40 | 23.87092 | 54.74956 | 36811 ft | 553 kts | 75° |
| 2026-04-23 15:41 | 23.88567 | 54.83147 | 36811 ft | 553 kts | 75° |
| 2026-04-23 15:41 | 23.90049 | 54.91396 | 36808 ft | 553 kts | 75° |
| 2026-04-23 15:42 | 23.91526 | 54.99644 | 36810 ft | 553 kts | 75° |
| 2026-04-23 15:42 | 23.92999 | 55.07893 | 36814 ft | 553 kts | 75° |
| 2026-04-23 15:43 | 23.94466 | 55.16140 | 36811 ft | 553 kts | 76° |
| 2026-04-23 15:43 | 23.95188 | 55.20209 | 36710 ft | 552 kts | 76° |
| 2026-04-23 15:43 | 23.95923 | 55.24353 | 35918 ft | 557 kts | 76° |
| 2026-04-23 15:43 | 23.96653 | 55.28484 | 35332 ft | 551 kts | 76° |
| 2026-04-23 15:44 | 23.97372 | 55.32565 | 34868 ft | 541 kts | 76° |
| 2026-04-23 15:44 | 23.98077 | 55.36569 | 34431 ft | 532 kts | 76° |
| 2026-04-23 15:44 | 23.98773 | 55.40516 | 33909 ft | 525 kts | 77° |
| 2026-04-23 15:44 | 23.99460 | 55.44418 | 33207 ft | 522 kts | 77° |
| 2026-04-23 15:45 | 24.00217 | 55.48298 | 32106 ft | 522 kts | 71° |
| 2026-04-23 15:45 | 24.01504 | 55.51972 | 30510 ft | 517 kts | 59° |
| 2026-04-23 15:45 | 24.03381 | 55.55263 | 28810 ft | 515 kts | 48° |
| 2026-04-23 15:45 | 24.05731 | 55.58097 | 28163 ft | 489 kts | 38° |
| 2026-04-23 15:46 | 24.08257 | 55.60542 | 27500 ft | 483 kts | 37° |
| 2026-04-23 15:46 | 24.10772 | 55.62955 | 26861 ft | 479 kts | 37° |
| 2026-04-23 15:46 | 24.13258 | 55.65362 | 26234 ft | 476 kts | 38° |
| 2026-04-23 15:46 | 24.15718 | 55.67769 | 25601 ft | 473 kts | 38° |
| 2026-04-23 15:47 | 24.18153 | 55.70170 | 24974 ft | 470 kts | 39° |
| 2026-04-23 15:47 | 24.20573 | 55.72568 | 24344 ft | 468 kts | 39° |
| 2026-04-23 15:47 | 24.23065 | 55.74844 | 23706 ft | 466 kts | 33° |
| 2026-04-23 15:47 | 24.25763 | 55.76736 | 23151 ft | 468 kts | 26° |
| 2026-04-23 15:48 | 24.28655 | 55.78355 | 22772 ft | 465 kts | 21° |
| 2026-04-23 15:48 | 24.31639 | 55.79653 | 22506 ft | 459 kts | 17° |
| 2026-04-23 15:48 | 24.34620 | 55.80860 | 22247 ft | 455 kts | 17° |
| 2026-04-23 15:48 | 24.37588 | 55.82057 | 21768 ft | 453 kts | 17° |
| 2026-04-23 15:49 | 24.40537 | 55.83252 | 21135 ft | 451 kts | 17° |
| 2026-04-23 15:49 | 24.43464 | 55.84448 | 20518 ft | 447 kts | 17° |
| 2026-04-23 15:49 | 24.46362 | 55.85639 | 19915 ft | 443 kts | 18° |
| 2026-04-23 15:49 | 24.49233 | 55.86825 | 19327 ft | 439 kts | 18° |
| 2026-04-23 15:50 | 24.52082 | 55.88004 | 18797 ft | 435 kts | 18° |
| 2026-04-23 15:50 | 24.54899 | 55.89171 | 18276 ft | 431 kts | 18° |
| 2026-04-23 15:50 | 24.57656 | 55.90314 | 17637 ft | 428 kts | 18° |
| 2026-04-23 15:50 | 24.60429 | 55.91463 | 17016 ft | 424 kts | 18° |
| 2026-04-23 15:51 | 24.63182 | 55.92604 | 16431 ft | 421 kts | 18° |
| 2026-04-23 15:51 | 24.65913 | 55.93737 | 15845 ft | 418 kts | 19° |
| 2026-04-23 15:51 | 24.68627 | 55.94863 | 15245 ft | 415 kts | 19° |
| 2026-04-23 15:51 | 24.71323 | 55.95983 | 14694 ft | 412 kts | 19° |
| 2026-04-23 15:52 | 24.73999 | 55.97094 | 14119 ft | 411 kts | 19° |
| 2026-04-23 15:52 | 24.76673 | 55.98206 | 13519 ft | 410 kts | 20° |
| 2026-04-23 15:52 | 24.79325 | 55.99309 | 13168 ft | 402 kts | 20° |
| 2026-04-23 15:52 | 24.81862 | 56.00368 | 12964 ft | 389 kts | 20° |
| 2026-04-23 15:53 | 24.84355 | 56.01407 | 12796 ft | 377 kts | 19° |
| 2026-04-23 15:53 | 24.86771 | 56.02410 | 12644 ft | 366 kts | 19° |
| 2026-04-23 15:53 | 24.89117 | 56.03386 | 12478 ft | 355 kts | 19° |
| 2026-04-23 15:53 | 24.91389 | 56.04333 | 12331 ft | 340 kts | 20° |
| 2026-04-23 15:54 | 24.93531 | 56.05228 | 12166 ft | 318 kts | 19° |
| 2026-04-23 15:54 | 24.95590 | 56.05788 | 12035 ft | 293 kts | 357° |
| 2026-04-23 15:54 | 24.97488 | 56.05404 | 11955 ft | 270 kts | 334° |
| 2026-04-23 15:54 | 24.99161 | 56.04430 | 11849 ft | 275 kts | 320° |
| 2026-04-23 15:55 | 25.00518 | 56.03013 | 11562 ft | 272 kts | 299° |
| 2026-04-23 15:55 | 25.01223 | 56.01123 | 11091 ft | 268 kts | 281° |
| 2026-04-23 15:55 | 25.01691 | 55.99131 | 10742 ft | 268 kts | 281° |
| 2026-04-23 15:55 | 25.02150 | 55.97152 | 10444 ft | 263 kts | 281° |
| 2026-04-23 15:56 | 25.02603 | 55.95214 | 9956 ft | 261 kts | 282° |
| 2026-04-23 15:56 | 25.03059 | 55.93272 | 9391 ft | 261 kts | 282° |
| 2026-04-23 15:56 | 25.03513 | 55.91358 | 9006 ft | 254 kts | 282° |
| 2026-04-23 15:56 | 25.03959 | 55.89493 | 8698 ft | 250 kts | 282° |
| 2026-04-23 15:57 | 25.04402 | 55.87645 | 8397 ft | 248 kts | 282° |
| 2026-04-23 15:57 | 25.04835 | 55.85849 | 8102 ft | 237 kts | 282° |
| 2026-04-23 15:57 | 25.05244 | 55.84155 | 7833 ft | 229 kts | 282° |
| 2026-04-23 15:57 | 25.05655 | 55.82448 | 7592 ft | 232 kts | 283° |
| 2026-04-23 15:58 | 25.06071 | 55.80719 | 7328 ft | 235 kts | 283° |
| 2026-04-23 15:58 | 25.06492 | 55.78973 | 7044 ft | 236 kts | 283° |
| 2026-04-23 15:58 | 25.06913 | 55.77229 | 6769 ft | 234 kts | 282° |
| 2026-04-23 15:58 | 25.07331 | 55.75499 | 6495 ft | 233 kts | 282° |
| 2026-04-23 15:59 | 25.07746 | 55.73781 | 6221 ft | 231 kts | 283° |
| 2026-04-23 15:59 | 25.08153 | 55.72093 | 6025 ft | 222 kts | 283° |
| 2026-04-23 15:59 | 25.08544 | 55.70472 | 5691 ft | 224 kts | 283° |
| 2026-04-23 15:59 | 25.08946 | 55.68799 | 5377 ft | 227 kts | 283° |
| 2026-04-23 16:00 | 25.09351 | 55.67120 | 5152 ft | 225 kts | 283° |
| 2026-04-23 16:00 | 25.09752 | 55.65457 | 4897 ft | 223 kts | 284° |
| 2026-04-23 16:00 | 25.10205 | 55.63862 | 4742 ft | 214 kts | 292° |
| 2026-04-23 16:00 | 25.10897 | 55.62423 | 4494 ft | 211 kts | 299° |
| 2026-04-23 16:01 | 25.11653 | 55.61045 | 4238 ft | 208 kts | 300° |
| 2026-04-23 16:01 | 25.12405 | 55.59692 | 3969 ft | 205 kts | 301° |
| 2026-04-23 16:01 | 25.13144 | 55.58363 | 3704 ft | 201 kts | 301° |
| 2026-04-23 16:01 | 25.13873 | 55.57053 | 3477 ft | 200 kts | 302° |
| 2026-04-23 16:02 | 25.14602 | 55.55736 | 3262 ft | 200 kts | 302° |
| 2026-04-23 16:02 | 25.15315 | 55.54444 | 2974 ft | 199 kts | 302° |
| 2026-04-23 16:02 | 25.16033 | 55.53152 | 2713 ft | 191 kts | 303° |
| 2026-04-23 16:02 | 25.16705 | 55.51940 | 2475 ft | 185 kts | 304° |
| 2026-04-23 16:03 | 25.17358 | 55.50758 | 2272 ft | 177 kts | 305° |
| 2026-04-23 16:03 | 25.17987 | 55.49621 | 2033 ft | 168 kts | 306° |
| 2026-04-23 16:03 | 25.18589 | 55.48536 | 1830 ft | 166 kts | 307° |
| 2026-04-23 16:03 | 25.19192 | 55.47448 | 1623 ft | 166 kts | 307° |
| 2026-04-23 16:04 | 25.19790 | 55.46367 | 1387 ft | 165 kts | 306° |
| 2026-04-23 16:04 | 25.20386 | 55.45292 | 1205 ft | 159 kts | 305° |
| 2026-04-23 16:04 | 25.20929 | 55.44307 | 992 ft | 144 kts | 305° |
| 2026-04-23 16:04 | 25.21441 | 55.43386 | 833 ft | 140 kts | 306° |
| 2026-04-23 16:05 | 25.21783 | 55.42771 | 726 ft | 144 kts | 306° |
| 2026-04-23 16:05 | 25.22475 | 55.41516 | 526 ft | 146 kts | 303° |
| 2026-04-23 16:05 | 25.22991 | 55.40570 | 320 ft | 142 kts | 302° |
| 2026-04-23 16:05 | 25.23494 | 55.39657 | 99 ft | 136 kts | 303° |
| 2026-04-23 16:06 | 25.23976 | 55.38794 | 30 ft | 122 kts | 302° |
| 2026-04-23 16:06 | 25.24328 | 55.38162 | 32 ft | 67 kts | 302° |
| 2026-04-23 16:06 | 25.24523 | 55.37802 | 28 ft | 48 kts | 300° |
| 2026-04-23 16:06 | 25.24606 | 55.37556 | 27 ft | 21 kts | 276° |
| 2026-04-23 16:07 | 25.24613 | 55.37454 | 27 ft | 9 kts | 272° |
| 2026-04-23 16:07 | 25.24614 | 55.37416 | 27 ft | 2 kts | 271° |
| 2026-04-23 16:07 | 25.24614 | 55.37398 | 27 ft | 3 kts | 271° |
| 2026-04-23 16:07 | 25.24615 | 55.37368 | 27 ft | 5 kts | 271° |
| 2026-04-23 16:08 | 25.24616 | 55.37324 | 26 ft | 7 kts | 274° |
| 2026-04-23 16:08 | 25.24630 | 55.37258 | 26 ft | 10 kts | 290° |
| 2026-04-23 16:08 | 25.24668 | 55.37181 | 27 ft | 13 kts | 301° |
| 2026-04-23 16:08 | 25.24719 | 55.37091 | 27 ft | 15 kts | 302° |
| 2026-04-23 16:09 | 25.24777 | 55.36986 | 27 ft | 17 kts | 301° |
| 2026-04-23 16:09 | 25.24837 | 55.36865 | 27 ft | 18 kts | 289° |
| 2026-04-23 16:09 | 25.24872 | 55.36731 | 26 ft | 18 kts | 287° |
| 2026-04-23 16:09 | 25.24925 | 55.36605 | 26 ft | 18 kts | 301° |
| 2026-04-23 16:10 | 25.24992 | 55.36487 | 26 ft | 18 kts | 302° |
| 2026-04-23 16:10 | 25.25001 | 55.36375 | 30 ft | 16 kts | 226° |
| 2026-04-23 16:10 | 25.24918 | 55.36320 | 30 ft | 10 kts | 211° |
| 2026-04-23 16:10 | 25.24890 | 55.36301 | 29 ft | 3 kts | 211° |
| 2026-04-23 16:11 | 25.24882 | 55.36296 | 30 ft | 0 kts | 211° |